KCDS/CDS METAR and TAF weather

Enter ICAO airport designator
Station Type Date Time Source
KCDS METAR 2018/10/16 20:53 UTC NOAA

KCDS 162053Z AUTO 00000KT 10SM -RA SCT049 BKN065 OVC080 12/03 A3030 RMK AO2 RAE01B22 SLP258 P0000 60000 T01220028 55016


Station Type Date Time Source
KCDS Decoded METAR 2018/10/16 20:53 UTC NOAA

CHILDRESS MUNICIPAL AIRPORT, TX, United States (KCDS) 34-26N 100-17W 594M
Oct 16, 2018 - 04:53 PM EDT / 2018.10.16 2053 UTC
Wind: Calm:0
Visibility: 10 mile(s):0
Sky conditions: overcast
Weather: light rain
Precipitation last hour: A trace
Temperature: 54.0 F (12.2 C)
Dew Point: 37.0 F (2.8 C)
Relative Humidity: 52%
Pressure (altimeter): 30.3 in. Hg (1026 hPa)
Pressure tendency: 0.05 inches (1.6 hPa) lower than three hours ago
ob: KCDS 162053Z AUTO 00000KT 10SM -RA SCT049 BKN065 OVC080 12/03 A3030 RMK AO2 RAE01B22 SLP258 P0000 60000 T01220028 55016
cycle: 21

Station Type Date Time Source
KCDS TAF 2018/10/16 18:22 UTC NOAA

TAF KCDS 161720Z 1618/1718 36008KT P6SM VCSH OVC100
FM162300 VRB05KT P6SM SCT025 BKN050


Example: see airport list